createdAt,value
2022-11-04T00:01:28.049Z,16.70
2022-11-04T00:04:31.494Z,15.60
2022-11-04T00:07:52.816Z,16.40
2022-11-04T00:11:17.890Z,15.30
2022-11-04T00:14:21.600Z,13.90
2022-11-04T00:17:24.581Z,16.10
2022-11-04T00:20:46.118Z,15.90
2022-11-04T00:24:07.664Z,16.10
2022-11-04T00:27:38.096Z,16.20
2022-11-04T00:30:40.997Z,15.60
2022-11-04T00:33:43.855Z,14.50
2022-11-04T00:36:46.769Z,15.20
2022-11-04T00:39:49.704Z,15.20
2022-11-04T00:42:52.579Z,15.70
2022-11-04T00:45:55.514Z,16.50
2022-11-04T00:48:58.968Z,14.40
2022-11-04T00:52:01.931Z,15.00
2022-11-04T00:55:05.281Z,14.60
2022-11-04T00:58:08.163Z,15.10
2022-11-04T01:01:13.580Z,14.30
2022-11-04T01:04:16.755Z,13.70
2022-11-04T01:07:19.715Z,13.70
2022-11-04T01:10:22.787Z,14.60
2022-11-04T01:13:25.663Z,14.00
2022-11-04T01:16:29.198Z,14.80
2022-11-04T01:19:32.478Z,15.10
2022-11-04T01:22:35.396Z,13.70
2022-11-04T01:25:41.549Z,14.40
2022-11-04T01:28:44.997Z,13.50
2022-11-04T01:31:47.873Z,12.80
2022-11-04T01:34:50.822Z,13.10
2022-11-04T01:37:53.734Z,13.40
2022-11-04T01:40:56.692Z,12.10
2022-11-04T01:44:00.870Z,12.50
2022-11-04T01:47:04.763Z,13.70
2022-11-04T01:50:10.665Z,13.50
2022-11-04T01:53:18.894Z,13.20
2022-11-04T01:56:23.184Z,13.30
2022-11-04T01:59:30.337Z,13.70
2022-11-04T02:02:33.741Z,13.10
2022-11-04T02:05:37.117Z,12.10
2022-11-04T02:08:41.145Z,13.00
2022-11-04T02:12:03.047Z,11.60
2022-11-04T02:15:06.380Z,11.20
2022-11-04T02:18:29.834Z,11.00
2022-11-04T02:22:23.872Z,11.40
2022-11-04T02:25:49.940Z,10.70
2022-11-04T02:29:14.472Z,11.30
2022-11-04T02:32:59.250Z,10.60
2022-11-04T02:36:24.727Z,10.60
2022-11-04T02:39:36.282Z,10.60
2022-11-04T02:42:55.160Z,10.40
2022-11-04T02:46:05.274Z,10.60
2022-11-04T02:49:15.616Z,9.90
2022-11-04T02:52:27.977Z,11.20
2022-11-04T02:55:40.795Z,9.90
2022-11-04T02:58:53.817Z,10.20
2022-11-04T03:01:59.247Z,9.70
2022-11-04T03:05:06.100Z,9.90
2022-11-04T03:08:14.758Z,9.60
2022-11-04T03:11:21.338Z,9.90
2022-11-04T03:14:29.591Z,10.20
2022-11-04T03:17:44.464Z,10.00
2022-11-04T03:20:49.035Z,9.50
2022-11-04T03:23:52.079Z,9.50
2022-11-04T03:27:23.162Z,9.70
2022-11-04T03:30:26.171Z,10.20
2022-11-04T03:33:43.140Z,9.50
2022-11-04T03:36:46.160Z,8.90
2022-11-04T03:39:49.233Z,7.50
2022-11-04T03:43:09.702Z,8.80
2022-11-04T03:46:13.106Z,8.00
2022-11-04T03:49:16.688Z,8.40
2022-11-04T03:52:20.268Z,8.40
2022-11-04T03:55:41.730Z,8.30
2022-11-04T03:59:04.671Z,8.40
2022-11-04T04:02:27.323Z,8.00
2022-11-04T04:05:41.671Z,8.90
2022-11-04T04:08:51.992Z,8.30
2022-11-04T04:12:00.897Z,8.60
2022-11-04T04:15:18.651Z,8.60
2022-11-04T04:18:39.021Z,10.00
2022-11-04T04:21:59.044Z,9.20
2022-11-04T04:25:25.390Z,8.50
2022-11-04T04:28:28.407Z,8.50
2022-11-04T04:31:52.548Z,8.10
2022-11-04T04:35:14.287Z,9.00
2022-11-04T04:38:40.845Z,8.30
2022-11-04T04:42:02.573Z,7.90
2022-11-04T04:45:06.833Z,8.20
2022-11-04T04:48:13.755Z,8.10
2022-11-04T04:51:16.852Z,8.20
2022-11-04T04:54:19.765Z,7.20
2022-11-04T04:57:22.749Z,8.10
2022-11-04T05:00:25.861Z,9.00
2022-11-04T05:03:28.740Z,9.70
2022-11-04T05:06:31.619Z,10.30
2022-11-04T05:09:34.532Z,9.30
2022-11-04T05:12:57.534Z,9.00
2022-11-04T05:16:09.539Z,9.50
2022-11-04T05:19:12.450Z,8.10
2022-11-04T05:22:15.800Z,9.00
2022-11-04T05:25:18.743Z,9.00
2022-11-04T05:28:21.658Z,9.20
2022-11-04T05:31:24.615Z,9.10
2022-11-04T05:34:27.547Z,9.20
2022-11-04T05:37:30.472Z,8.30
2022-11-04T05:40:33.536Z,8.90
2022-11-04T05:43:36.856Z,9.50
2022-11-04T05:46:39.818Z,10.00
2022-11-04T05:49:43.392Z,10.70
2022-11-04T05:52:46.334Z,11.50
2022-11-04T05:55:49.388Z,10.30
2022-11-04T05:58:52.403Z,9.90
2022-11-04T06:01:55.600Z,9.60
2022-11-04T06:04:59.226Z,9.20
2022-11-04T06:08:02.169Z,9.30
2022-11-04T06:11:05.507Z,9.00
2022-11-04T06:14:08.571Z,7.80
2022-11-04T06:17:20.727Z,8.70
2022-11-04T06:20:23.677Z,9.60
2022-11-04T06:23:26.545Z,8.40
2022-11-04T06:26:31.263Z,8.70
2022-11-04T06:29:34.236Z,8.30
2022-11-04T06:32:37.310Z,8.90
2022-11-04T06:35:40.223Z,10.00
2022-11-04T06:38:43.675Z,9.10
2022-11-04T06:41:50.489Z,8.30
2022-11-04T06:44:54.731Z,9.10
2022-11-04T06:47:58.074Z,9.40
2022-11-04T06:51:01.686Z,8.80
2022-11-04T06:54:04.682Z,8.90
2022-11-04T06:57:11.054Z,7.90
2022-11-04T07:00:14.432Z,9.60
2022-11-04T07:03:17.364Z,8.80
2022-11-04T07:06:21.268Z,8.30
2022-11-04T07:09:24.281Z,8.40
2022-11-04T07:12:27.196Z,8.80
2022-11-04T07:15:30.211Z,8.30
2022-11-04T07:18:33.258Z,10.40
2022-11-04T07:21:36.372Z,8.90
2022-11-04T07:24:39.334Z,8.60
2022-11-04T07:27:42.371Z,8.50
2022-11-04T07:30:45.314Z,8.90
2022-11-04T07:33:50.286Z,8.80
2022-11-04T07:36:53.344Z,9.80
2022-11-04T07:39:56.302Z,12.10
2022-11-04T07:42:59.248Z,11.00
2022-11-04T07:46:14.714Z,10.40
2022-11-04T07:49:17.617Z,10.00
2022-11-04T07:52:20.552Z,9.90
2022-11-04T07:55:23.455Z,10.00
2022-11-04T07:58:26.725Z,11.00
2022-11-04T08:01:29.680Z,11.40
2022-11-04T08:04:33.214Z,11.30
2022-11-04T08:07:36.503Z,12.00
2022-11-04T08:10:40.149Z,11.70
2022-11-04T08:13:43.687Z,13.20
2022-11-04T08:16:46.932Z,12.60
2022-11-04T08:19:49.865Z,12.80
2022-11-04T08:22:53.171Z,13.70
2022-11-04T08:25:57.597Z,12.40
2022-11-04T08:29:02.513Z,11.70
2022-11-04T08:32:07.398Z,11.70
2022-11-04T08:35:10.439Z,11.80
2022-11-04T08:38:13.486Z,11.30
2022-11-04T08:41:20.025Z,11.10
2022-11-04T08:44:23.962Z,11.50
2022-11-04T08:47:27.134Z,13.40
2022-11-04T08:50:30.856Z,11.80
2022-11-04T08:53:34.276Z,10.80
2022-11-04T08:56:39.331Z,11.50
2022-11-04T08:59:42.285Z,11.00
2022-11-04T09:02:45.149Z,10.30
2022-11-04T09:05:49.243Z,10.10
2022-11-04T09:08:55.575Z,10.00
2022-11-04T09:11:58.567Z,10.50
2022-11-04T09:15:02.453Z,10.50
2022-11-04T09:18:05.370Z,11.20
2022-11-04T09:21:10.777Z,11.50
2022-11-04T09:24:14.179Z,11.60
2022-11-04T09:27:17.466Z,10.90
2022-11-04T09:30:22.497Z,11.10
2022-11-04T09:33:25.481Z,11.50
2022-11-04T09:36:29.293Z,11.00
2022-11-04T09:39:32.440Z,10.70
2022-11-04T09:42:45.218Z,11.60
2022-11-04T09:45:48.253Z,11.50
2022-11-04T09:48:55.360Z,10.90
2022-11-04T09:51:59.512Z,11.10
2022-11-04T09:55:32.758Z,11.20
2022-11-04T09:58:39.126Z,12.30
2022-11-04T10:01:42.172Z,12.80
2022-11-04T10:05:18.324Z,12.20
2022-11-04T10:08:56.828Z,11.20
2022-11-04T10:12:08.837Z,11.10
2022-11-04T10:15:36.852Z,11.40
2022-11-04T10:19:15.154Z,10.70
2022-11-04T10:22:52.695Z,11.60
2022-11-04T10:26:13.862Z,11.00
2022-11-04T10:29:52.385Z,11.80
2022-11-04T10:33:30.013Z,10.80
2022-11-04T10:36:36.079Z,11.70
2022-11-04T10:39:47.199Z,10.80
2022-11-04T10:42:51.718Z,10.40
2022-11-04T10:46:24.403Z,10.80
2022-11-04T10:49:54.813Z,10.10
2022-11-04T10:53:20.100Z,10.60
2022-11-04T10:56:39.726Z,10.20
2022-11-04T11:00:01.775Z,10.00
2022-11-04T11:03:24.042Z,11.30
2022-11-04T11:06:27.048Z,10.60
2022-11-04T11:09:33.742Z,10.30
2022-11-04T11:12:51.481Z,10.90
2022-11-04T11:16:17.511Z,10.60
2022-11-04T11:19:25.008Z,11.00
2022-11-04T11:22:32.672Z,14.40
2022-11-04T11:25:50.625Z,13.10
2022-11-04T11:29:07.375Z,11.20
2022-11-04T11:32:33.225Z,11.40
2022-11-04T11:35:51.528Z,11.20
2022-11-04T11:39:05.869Z,11.50
2022-11-04T11:42:16.287Z,13.50
2022-11-04T11:45:23.501Z,14.70
2022-11-04T11:49:03.076Z,15.20
2022-11-04T11:52:20.463Z,12.70
2022-11-04T11:55:37.234Z,13.20
2022-11-04T12:02:34.643Z,17.40
2022-11-04T12:09:34.046Z,13.20
2022-11-04T12:13:05.121Z,13.70
2022-11-04T12:16:10.969Z,13.00
2022-11-04T12:19:46.641Z,12.70
2022-11-04T12:22:59.828Z,13.30
2022-11-04T12:26:21.518Z,14.90
2022-11-04T12:29:41.072Z,14.10
2022-11-04T12:33:19.615Z,15.30
2022-11-04T12:36:44.077Z,14.70
2022-11-04T12:40:08.692Z,15.20
2022-11-04T12:43:36.406Z,15.30
2022-11-04T12:47:04.592Z,16.60
2022-11-04T12:50:31.728Z,15.80
2022-11-04T12:53:42.819Z,21.00
2022-11-04T12:56:58.219Z,24.00
2022-11-04T13:00:06.385Z,24.70
2022-11-04T13:03:16.364Z,20.60
2022-11-04T13:06:27.390Z,18.10
2022-11-04T13:09:41.568Z,17.80
2022-11-04T13:12:50.222Z,16.60
2022-11-04T13:15:58.260Z,15.50
2022-11-04T13:19:02.017Z,15.90
2022-11-04T13:22:14.550Z,17.60
2022-11-04T13:25:23.945Z,15.10
2022-11-04T13:28:27.056Z,14.40
2022-11-04T13:31:54.308Z,13.70
2022-11-04T13:35:26.057Z,14.80
2022-11-04T13:38:36.933Z,16.80
2022-11-04T13:42:12.180Z,14.80
2022-11-04T13:45:18.847Z,13.10
2022-11-04T13:48:32.830Z,13.40
2022-11-04T13:51:39.427Z,13.90
2022-11-04T13:54:53.801Z,13.40
2022-11-04T13:58:01.666Z,13.30
2022-11-04T14:01:29.353Z,14.40
2022-11-04T14:04:32.499Z,14.40
2022-11-04T14:08:03.393Z,13.20
2022-11-04T14:11:10.316Z,14.10
2022-11-04T14:14:19.972Z,15.70
2022-11-04T14:17:35.425Z,16.60
2022-11-04T14:21:07.213Z,17.20
2022-11-04T14:24:16.271Z,21.00
2022-11-04T14:27:28.047Z,21.70
2022-11-04T14:30:44.430Z,14.10
2022-11-04T14:33:56.243Z,13.30
2022-11-04T14:37:01.975Z,13.70
2022-11-04T14:40:08.064Z,16.10
2022-11-04T14:43:38.939Z,18.10
2022-11-04T14:46:45.090Z,20.00
2022-11-04T14:49:52.844Z,24.70
2022-11-04T14:53:03.858Z,23.40
2022-11-04T14:56:23.268Z,19.40
2022-11-04T14:59:29.067Z,16.50
2022-11-04T15:02:33.942Z,19.50
2022-11-04T15:05:39.184Z,24.30
2022-11-04T15:08:42.151Z,41.50
2022-11-04T15:12:03.520Z,44.70
2022-11-04T15:15:28.159Z,42.10
2022-11-04T15:18:32.123Z,35.60
2022-11-04T15:21:43.552Z,35.80
2022-11-04T15:24:46.912Z,37.00
2022-11-04T15:27:50.012Z,32.70
2022-11-04T15:31:02.556Z,30.40
2022-11-04T15:34:14.082Z,29.20
2022-11-04T15:37:17.826Z,25.50
2022-11-04T15:40:22.180Z,24.50
2022-11-04T15:43:25.235Z,22.30
2022-11-04T15:46:29.586Z,20.90
2022-11-04T15:49:35.455Z,20.30
2022-11-04T15:52:38.414Z,17.20
2022-11-04T15:55:41.459Z,18.70
2022-11-04T15:58:45.519Z,24.10
2022-11-04T16:01:52.163Z,26.70
2022-11-04T16:05:06.974Z,25.60
2022-11-04T16:08:27.408Z,24.40
2022-11-04T16:11:30.569Z,23.90
2022-11-04T16:14:34.243Z,24.00
2022-11-04T16:17:44.990Z,21.00
2022-11-04T16:20:49.152Z,20.00
2022-11-04T16:23:56.937Z,20.10
2022-11-04T16:27:00.733Z,20.50
2022-11-04T16:30:21.667Z,20.20
2022-11-04T16:33:24.696Z,15.20
2022-11-04T16:36:34.087Z,16.40
2022-11-04T16:39:39.239Z,18.00
2022-11-04T16:42:44.184Z,18.30
2022-11-04T16:45:53.587Z,17.00
2022-11-04T16:48:56.908Z,16.50
2022-11-04T16:52:03.444Z,13.80
2022-11-04T16:55:07.060Z,13.00
2022-11-04T16:58:17.516Z,13.30
2022-11-04T17:01:21.411Z,16.30
2022-11-04T17:04:24.471Z,13.00
2022-11-04T17:07:51.171Z,15.30
2022-11-04T17:10:50.717Z,13.80
2022-11-04T17:13:53.643Z,13.40
2022-11-04T17:16:59.412Z,14.00
2022-11-04T17:20:02.285Z,16.00
2022-11-04T17:23:05.410Z,17.10
2022-11-04T17:26:09.642Z,12.80
2022-11-04T17:29:17.049Z,16.50
2022-11-04T17:32:20.485Z,22.00
2022-11-04T17:35:23.807Z,25.40
2022-11-04T17:38:27.509Z,23.50
2022-11-04T17:41:49.101Z,23.80
2022-11-04T17:44:52.572Z,26.40
2022-11-04T17:47:55.587Z,26.50
2022-11-04T17:50:58.614Z,27.00
2022-11-04T17:54:02.233Z,27.10
2022-11-04T17:57:05.199Z,27.40
2022-11-04T18:00:08.907Z,27.70
2022-11-04T18:03:12.471Z,24.90
2022-11-04T18:06:15.671Z,24.40
2022-11-04T18:09:18.818Z,24.80
2022-11-04T18:12:37.120Z,24.90
2022-11-04T18:15:40.126Z,26.60
2022-11-04T18:18:43.045Z,27.80
2022-11-04T18:21:47.336Z,37.80
2022-11-04T18:24:50.392Z,42.60
2022-11-04T18:27:53.352Z,46.40
2022-11-04T18:30:56.317Z,46.00
2022-11-04T18:34:01.779Z,45.40
2022-11-04T18:37:04.723Z,43.10
2022-11-04T18:40:08.142Z,41.60
2022-11-04T18:43:11.279Z,41.90
2022-11-04T18:46:16.102Z,40.60
2022-11-04T18:49:20.628Z,41.50
2022-11-04T18:52:24.038Z,39.00
2022-11-04T18:55:27.025Z,39.80
2022-11-04T18:58:34.999Z,39.90
2022-11-04T19:01:38.854Z,36.90
2022-11-04T19:04:41.998Z,35.90
2022-11-04T19:07:45.042Z,36.20
2022-11-04T19:11:00.482Z,32.30
2022-11-04T19:14:09.552Z,33.60
2022-11-04T19:17:12.706Z,32.00
2022-11-04T19:20:16.320Z,32.40
2022-11-04T19:23:19.277Z,32.90
2022-11-04T19:26:24.041Z,34.40
2022-11-04T19:29:27.051Z,34.80
2022-11-04T19:32:30.012Z,34.70
2022-11-04T19:35:33.055Z,38.80
2022-11-04T19:38:36.429Z,36.90
2022-11-04T19:41:58.094Z,38.00
2022-11-04T19:45:01.533Z,42.50
2022-11-04T19:48:04.962Z,41.20
2022-11-04T19:51:11.963Z,38.70
2022-11-04T19:54:14.885Z,36.10
2022-11-04T19:57:17.803Z,35.50
2022-11-04T20:00:20.857Z,32.50
2022-11-04T20:03:24.005Z,30.90
2022-11-04T20:06:26.931Z,31.50
2022-11-04T20:09:29.873Z,28.90
2022-11-04T20:12:54.133Z,28.50
2022-11-04T20:15:57.364Z,31.00
2022-11-04T20:19:04.215Z,33.50
2022-11-04T20:22:07.134Z,31.60
2022-11-04T20:25:10.232Z,32.60
2022-11-04T20:28:13.448Z,31.30
2022-11-04T20:31:19.189Z,32.60
2022-11-04T20:34:22.277Z,35.00
2022-11-04T20:37:26.143Z,35.60
2022-11-04T20:40:30.084Z,34.10
2022-11-04T20:43:38.939Z,34.50
2022-11-04T20:46:42.871Z,36.10
2022-11-04T20:49:45.980Z,35.60
2022-11-04T20:52:48.898Z,34.90
2022-11-04T20:55:51.985Z,35.20
2022-11-04T20:58:59.408Z,35.80
2022-11-04T21:02:02.924Z,34.50
2022-11-04T21:05:06.356Z,35.80
2022-11-04T21:08:09.814Z,36.20
2022-11-04T21:11:13.334Z,35.30
2022-11-04T21:14:19.470Z,33.90
2022-11-04T21:17:22.673Z,34.90
2022-11-04T21:20:25.596Z,34.20
2022-11-04T21:23:28.988Z,37.30
2022-11-04T21:26:34.305Z,38.80
2022-11-04T21:29:37.245Z,36.30
2022-11-04T21:32:40.217Z,33.60
2022-11-04T21:35:43.769Z,30.90
2022-11-04T21:38:47.019Z,32.20
2022-11-04T21:41:50.240Z,30.00
2022-11-04T21:44:53.185Z,29.20
2022-11-04T21:47:56.170Z,26.60
2022-11-04T21:51:07.132Z,26.50
2022-11-04T21:54:10.738Z,27.10
2022-11-04T21:57:13.712Z,27.60
2022-11-04T22:00:16.709Z,28.20
2022-11-04T22:03:19.629Z,26.80
2022-11-04T22:06:22.996Z,28.40
2022-11-04T22:09:25.882Z,29.30
2022-11-04T22:12:29.817Z,31.10
2022-11-04T22:15:51.973Z,31.20
2022-11-04T22:18:57.544Z,30.30
2022-11-04T22:22:00.448Z,30.20
2022-11-04T22:25:03.603Z,29.50
2022-11-04T22:28:06.598Z,29.90
2022-11-04T22:31:24.724Z,30.10
2022-11-04T22:34:27.840Z,28.40
2022-11-04T22:37:31.220Z,29.90
2022-11-04T22:40:34.786Z,30.70
2022-11-04T22:43:38.046Z,30.20
2022-11-04T22:46:41.185Z,29.10
2022-11-04T22:49:44.171Z,29.00
2022-11-04T22:52:47.605Z,28.20
2022-11-04T22:55:50.929Z,27.20
2022-11-04T22:58:54.370Z,25.90
2022-11-04T23:01:57.570Z,25.50
2022-11-04T23:05:01.047Z,23.40
2022-11-04T23:08:04.110Z,20.90
2022-11-04T23:11:35.014Z,19.00
2022-11-04T23:14:37.935Z,15.30
2022-11-04T23:17:59.510Z,14.80
2022-11-04T23:21:20.837Z,16.60
2022-11-04T23:24:42.281Z,18.00
2022-11-04T23:28:06.227Z,20.10
2022-11-04T23:31:09.139Z,17.20
2022-11-04T23:34:30.609Z,10.70
2022-11-04T23:37:33.579Z,7.60
2022-11-04T23:40:36.684Z,5.90
2022-11-04T23:43:39.622Z,5.30
2022-11-04T23:47:01.143Z,4.90
2022-11-04T23:50:22.997Z,4.00
2022-11-04T23:53:44.803Z,4.00
2022-11-04T23:57:06.559Z,4.10
